createdAt,value
2023-01-17T00:02:31.061Z,30.67
2023-01-17T00:05:18.465Z,32.35
2023-01-17T00:08:04.579Z,30.90
2023-01-17T00:10:33.340Z,30.48
2023-01-17T00:13:03.634Z,29.73
2023-01-17T00:15:33.335Z,30.40
2023-01-17T00:18:04.838Z,29.90
2023-01-17T00:20:52.139Z,30.13
2023-01-17T00:23:39.384Z,31.45
2023-01-17T00:26:12.426Z,30.55
2023-01-17T00:28:41.767Z,32.00
2023-01-17T00:31:11.644Z,30.83
2023-01-17T00:33:39.148Z,32.78
2023-01-17T00:36:08.536Z,32.90
2023-01-17T00:38:38.221Z,32.88
2023-01-17T00:41:08.146Z,32.10
2023-01-17T00:44:04.248Z,31.38
2023-01-17T00:46:49.916Z,31.83
2023-01-17T00:49:36.275Z,32.45
2023-01-17T00:52:23.515Z,33.65
2023-01-17T00:55:12.302Z,33.33
2023-01-17T00:57:58.103Z,31.75
2023-01-17T01:00:44.008Z,31.95
2023-01-17T01:03:30.743Z,29.77
2023-01-17T01:06:17.163Z,32.35
2023-01-17T01:09:04.917Z,30.65
2023-01-17T01:11:50.945Z,31.65
2023-01-17T01:14:37.174Z,30.70
2023-01-17T01:17:23.375Z,31.90
2023-01-17T01:20:11.033Z,32.17
2023-01-17T01:22:56.723Z,32.05
2023-01-17T01:25:44.268Z,32.60
2023-01-17T01:28:32.325Z,33.55
2023-01-17T01:31:18.785Z,32.88
2023-01-17T01:33:47.577Z,33.53
2023-01-17T01:36:15.798Z,32.33
2023-01-17T01:38:45.877Z,34.03
2023-01-17T01:41:16.324Z,33.72
2023-01-17T01:43:51.228Z,33.83
2023-01-17T01:46:23.092Z,33.33
2023-01-17T01:48:55.973Z,33.20
2023-01-17T01:51:29.520Z,34.95
2023-01-17T01:54:02.599Z,36.33
2023-01-17T01:56:33.886Z,35.13
2023-01-17T01:59:05.295Z,34.45
2023-01-17T02:01:34.057Z,38.15
2023-01-17T02:04:10.060Z,37.72
2023-01-17T02:06:41.459Z,37.33
2023-01-17T02:09:16.081Z,37.30
2023-01-17T02:11:48.103Z,36.25
2023-01-17T02:16:59.949Z,34.80
2023-01-17T02:20:04.679Z,35.67
2023-01-17T02:23:11.691Z,35.25
2023-01-17T02:26:20.405Z,37.28
2023-01-17T02:29:11.444Z,36.67
2023-01-17T02:31:49.742Z,36.38
2023-01-17T02:34:25.811Z,37.42
2023-01-17T02:37:01.361Z,38.88
2023-01-17T02:39:36.397Z,38.95
2023-01-17T02:42:10.114Z,39.55
2023-01-17T02:44:42.502Z,40.25
2023-01-17T02:47:25.723Z,38.83
2023-01-17T02:49:55.894Z,40.13
2023-01-17T02:52:45.790Z,38.70
2023-01-17T02:55:28.418Z,37.40
2023-01-17T02:58:10.769Z,37.33
2023-01-17T03:00:45.803Z,37.15
2023-01-17T03:03:24.410Z,34.22
2023-01-17T03:05:58.439Z,34.22
2023-01-17T03:08:28.264Z,34.20
2023-01-17T03:10:56.454Z,35.22
2023-01-17T03:13:24.828Z,35.30
2023-01-17T03:15:53.475Z,35.88
2023-01-17T03:18:24.112Z,34.47
2023-01-17T03:20:54.607Z,34.38
2023-01-17T03:23:23.407Z,34.30
2023-01-17T03:25:52.117Z,35.22
2023-01-17T03:28:20.336Z,35.25
2023-01-17T03:30:50.789Z,34.22
2023-01-17T03:33:20.708Z,34.08
2023-01-17T03:35:51.877Z,33.40
2023-01-17T03:38:21.678Z,32.80
2023-01-17T03:40:49.944Z,32.67
2023-01-17T03:43:18.539Z,30.67
2023-01-17T03:45:51.982Z,31.65
2023-01-17T03:48:21.771Z,29.25
2023-01-17T03:50:53.182Z,30.08
2023-01-17T03:53:21.560Z,29.75
2023-01-17T03:55:51.005Z,29.85
2023-01-17T03:58:19.402Z,28.77
2023-01-17T04:00:48.298Z,29.23
2023-01-17T04:03:18.233Z,28.23
2023-01-17T04:05:46.839Z,27.95
2023-01-17T04:08:17.689Z,27.63
2023-01-17T04:10:46.611Z,27.20
2023-01-17T04:13:16.735Z,27.33
2023-01-17T04:15:46.868Z,26.45
2023-01-17T04:18:19.488Z,26.52
2023-01-17T04:20:48.222Z,25.73
2023-01-17T04:23:18.253Z,24.38
2023-01-17T04:25:48.758Z,24.33
2023-01-17T04:28:17.227Z,23.80
2023-01-17T04:30:45.600Z,25.10
2023-01-17T04:33:13.996Z,23.77
2023-01-17T04:35:43.523Z,23.98
2023-01-17T04:38:13.261Z,22.40
2023-01-17T04:40:43.769Z,21.83
2023-01-17T04:43:13.071Z,21.50
2023-01-17T04:45:41.465Z,21.67
2023-01-17T04:48:12.694Z,22.73
2023-01-17T04:53:11.721Z,21.00
2023-01-17T04:55:40.329Z,21.42
2023-01-17T04:58:11.442Z,20.60
2023-01-17T05:00:41.478Z,19.63
2023-01-17T05:03:11.251Z,19.95
2023-01-17T05:05:39.500Z,19.30
2023-01-17T05:08:08.074Z,18.48
2023-01-17T05:10:36.933Z,18.25
2023-01-17T05:13:05.630Z,19.25
2023-01-17T05:15:35.540Z,17.73
2023-01-17T05:18:08.609Z,16.60
2023-01-17T05:20:37.969Z,17.02
2023-01-17T05:23:06.968Z,17.35
2023-01-17T05:25:36.799Z,17.58
2023-01-17T05:28:08.228Z,17.38
2023-01-17T05:30:38.315Z,20.33
2023-01-17T05:33:08.227Z,18.98
2023-01-17T05:35:37.355Z,16.98
2023-01-17T05:38:06.485Z,16.02
2023-01-17T05:40:35.606Z,15.75
2023-01-17T05:43:05.946Z,16.27
2023-01-17T05:45:35.709Z,15.93
2023-01-17T05:48:07.096Z,15.80
2023-01-17T05:50:38.761Z,15.20
2023-01-17T05:53:09.528Z,15.45
2023-01-17T05:55:38.406Z,15.07
2023-01-17T05:58:10.204Z,15.38
2023-01-17T06:03:09.342Z,15.27
2023-01-17T06:05:37.977Z,17.00
2023-01-17T06:08:06.809Z,17.52
2023-01-17T06:10:35.917Z,17.55
2023-01-17T06:13:09.637Z,17.13
2023-01-17T06:15:39.045Z,18.17
2023-01-17T06:18:11.087Z,17.17
2023-01-17T06:20:40.170Z,16.38
2023-01-17T06:23:12.588Z,16.17
2023-01-17T06:25:43.764Z,16.27
2023-01-17T06:28:13.140Z,16.17
2023-01-17T06:30:42.866Z,15.80
2023-01-17T06:33:15.667Z,15.68
2023-01-17T06:35:49.351Z,15.32
2023-01-17T06:38:18.228Z,14.48
2023-01-17T06:40:47.152Z,13.77
2023-01-17T06:43:25.344Z,13.18
2023-01-17T06:45:57.461Z,12.45
2023-01-17T06:51:06.133Z,13.23
2023-01-17T06:53:34.419Z,13.20
2023-01-17T06:56:03.058Z,12.40
2023-01-17T06:58:32.083Z,12.10
2023-01-17T07:01:00.755Z,12.07
2023-01-17T07:03:30.537Z,11.05
2023-01-17T07:06:02.084Z,10.88
2023-01-17T07:08:30.927Z,10.48
2023-01-17T07:11:02.645Z,10.80
2023-01-17T07:13:32.019Z,9.80
2023-01-17T07:16:02.808Z,10.95
2023-01-17T07:18:34.217Z,10.88
2023-01-17T07:21:05.295Z,10.10
2023-01-17T07:23:34.105Z,9.73
2023-01-17T07:26:03.471Z,9.43
2023-01-17T07:28:37.939Z,10.13
2023-01-17T07:31:08.961Z,9.65
2023-01-17T07:33:39.326Z,10.65
2023-01-17T07:36:11.306Z,9.80
2023-01-17T07:38:40.402Z,9.90
2023-01-17T07:41:10.956Z,9.95
2023-01-17T07:43:40.087Z,9.88
2023-01-17T07:46:08.935Z,9.55
2023-01-17T07:48:38.769Z,9.40
2023-01-17T07:51:07.236Z,9.50
2023-01-17T07:53:37.506Z,9.07
2023-01-17T07:56:08.951Z,9.55
2023-01-17T07:58:37.919Z,10.90
2023-01-17T08:01:08.635Z,11.02
2023-01-17T08:03:40.946Z,10.60
2023-01-17T08:06:18.552Z,10.25
2023-01-17T08:08:47.082Z,10.32
2023-01-17T08:11:16.136Z,10.40
2023-01-17T08:13:44.587Z,11.35
2023-01-17T08:16:14.035Z,10.38
2023-01-17T08:18:45.175Z,9.88
2023-01-17T08:21:16.986Z,9.70
2023-01-17T08:23:50.381Z,8.75
2023-01-17T08:26:22.555Z,8.07
2023-01-17T08:28:55.536Z,7.70
2023-01-17T08:31:25.969Z,6.10
2023-01-17T08:33:57.253Z,5.22
2023-01-17T08:36:27.393Z,4.20
2023-01-17T08:38:59.298Z,3.10
2023-01-17T08:43:56.860Z,2.80
2023-01-17T08:46:25.582Z,2.67
2023-01-17T08:48:58.901Z,3.17
2023-01-17T08:51:28.708Z,2.80
2023-01-17T08:54:01.837Z,2.70
2023-01-17T08:56:33.770Z,2.90
2023-01-17T08:59:03.316Z,2.75
2023-01-17T09:01:41.671Z,2.67
2023-01-17T09:04:12.359Z,2.65
2023-01-17T09:06:45.281Z,2.85
2023-01-17T09:09:14.060Z,2.72
2023-01-17T09:11:42.671Z,2.90
2023-01-17T09:14:15.725Z,2.97
2023-01-17T09:16:52.005Z,3.13
2023-01-17T09:19:23.678Z,2.67
2023-01-17T09:24:22.967Z,2.30
2023-01-17T09:26:51.746Z,2.60
2023-01-17T09:29:23.633Z,2.40
2023-01-17T09:34:21.819Z,2.20
2023-01-17T09:36:53.184Z,2.10
2023-01-17T09:39:21.589Z,2.70
2023-01-17T09:41:58.647Z,2.40
2023-01-17T09:44:30.775Z,2.60
2023-01-17T09:47:06.570Z,2.45
2023-01-17T09:49:42.770Z,2.10
2023-01-17T09:52:18.578Z,2.20
2023-01-17T09:54:53.428Z,2.33
2023-01-17T09:57:43.020Z,2.15
2023-01-17T10:00:26.347Z,2.20
2023-01-17T10:03:26.322Z,2.10
2023-01-17T10:06:09.200Z,2.30
2023-01-17T10:09:04.037Z,2.22
2023-01-17T10:11:42.815Z,1.98
2023-01-17T10:14:28.649Z,2.03
2023-01-17T10:17:04.247Z,1.80
2023-01-17T10:19:43.033Z,1.90
2023-01-17T10:22:34.942Z,2.40
2023-01-17T10:25:28.270Z,2.30
2023-01-17T10:27:58.910Z,2.60
2023-01-17T10:30:35.586Z,2.30
2023-01-17T10:33:13.348Z,2.40
2023-01-17T10:35:49.798Z,2.60
2023-01-17T10:38:22.090Z,2.50
2023-01-17T10:40:57.589Z,2.55
2023-01-17T10:43:32.323Z,2.65
2023-01-17T10:46:02.179Z,2.80
2023-01-17T10:48:38.767Z,2.60
2023-01-17T10:51:24.101Z,2.80
2023-01-17T10:54:09.928Z,2.95
2023-01-17T10:56:40.812Z,2.97
2023-01-17T10:59:20.181Z,2.80
2023-01-17T11:01:53.242Z,2.90
2023-01-17T11:04:28.870Z,2.58
2023-01-17T11:07:14.163Z,2.47
2023-01-17T11:09:45.589Z,2.30
2023-01-17T11:12:21.954Z,2.33
2023-01-17T11:15:03.891Z,2.22
2023-01-17T11:17:37.516Z,2.30
2023-01-17T11:20:15.898Z,2.33
2023-01-17T11:22:49.951Z,2.55
2023-01-17T11:25:25.170Z,2.20
2023-01-17T11:28:03.622Z,2.35
2023-01-17T11:30:34.464Z,2.45
2023-01-17T11:33:06.320Z,2.90
2023-01-17T11:35:36.497Z,2.72
2023-01-17T11:38:07.834Z,2.80
2023-01-17T11:40:41.184Z,2.30
2023-01-17T11:43:22.233Z,2.40
2023-01-17T11:46:05.411Z,2.20
2023-01-17T11:48:39.858Z,2.60
2023-01-17T11:51:24.526Z,2.60
2023-01-17T11:53:56.211Z,2.95
2023-01-17T11:56:37.718Z,2.70
2023-01-17T11:59:17.828Z,2.85
2023-01-17T12:01:58.263Z,2.70
2023-01-17T12:04:36.779Z,2.75
2023-01-17T12:07:22.673Z,2.60
2023-01-17T12:10:03.707Z,2.70
2023-01-17T12:13:04.337Z,2.58
2023-01-17T12:18:43.765Z,2.40
2023-01-17T12:21:23.749Z,2.65
2023-01-17T12:24:05.203Z,2.40
2023-01-17T12:26:39.090Z,2.30
2023-01-17T12:29:41.833Z,2.47
2023-01-17T12:32:28.953Z,2.90
2023-01-17T12:35:01.845Z,2.60
2023-01-17T12:37:35.901Z,2.60
2023-01-17T12:40:15.529Z,2.80
2023-01-17T12:42:50.881Z,2.78
2023-01-17T12:45:27.388Z,2.80
2023-01-17T12:48:04.437Z,2.60
2023-01-17T12:50:39.282Z,2.75
2023-01-17T12:53:19.815Z,2.60
2023-01-17T12:55:55.694Z,2.80
2023-01-17T12:58:26.890Z,2.67
2023-01-17T13:01:01.688Z,2.88
2023-01-17T13:03:43.045Z,2.90
2023-01-17T13:06:23.718Z,2.97
2023-01-17T13:08:59.252Z,3.20
2023-01-17T13:11:31.008Z,3.33
2023-01-17T13:14:02.774Z,3.33
2023-01-17T13:16:42.144Z,3.30
2023-01-17T13:19:20.795Z,3.10
2023-01-17T13:21:52.044Z,3.38
2023-01-17T13:24:32.429Z,3.28
2023-01-17T13:27:19.267Z,3.40
2023-01-17T13:30:09.934Z,3.60
2023-01-17T13:33:29.533Z,3.65
2023-01-17T13:36:17.198Z,3.53
2023-01-17T13:39:02.027Z,4.00
2023-01-17T13:41:43.799Z,3.80
2023-01-17T13:44:24.689Z,3.70
2023-01-17T13:47:02.665Z,3.50
2023-01-17T13:49:48.505Z,3.50
2023-01-17T13:52:36.977Z,3.55
2023-01-17T13:55:10.032Z,3.60
2023-01-17T13:57:45.143Z,4.03
2023-01-17T14:00:55.919Z,4.80
2023-01-17T14:04:01.165Z,4.40
2023-01-17T14:06:36.058Z,4.10
2023-01-17T14:09:12.342Z,3.70
2023-01-17T14:12:06.454Z,3.67
2023-01-17T14:14:50.380Z,3.70
2023-01-17T14:17:59.213Z,4.30
2023-01-17T14:20:45.365Z,4.40
2023-01-17T14:23:35.923Z,5.22
2023-01-17T14:26:20.368Z,7.55
2023-01-17T14:28:49.155Z,5.90
2023-01-17T14:31:19.352Z,5.00
2023-01-17T14:33:48.558Z,5.30
2023-01-17T14:36:25.807Z,4.80
2023-01-17T14:38:55.735Z,6.53
2023-01-17T14:41:27.949Z,5.85
2023-01-17T14:43:57.460Z,5.20
2023-01-17T14:46:29.449Z,4.20
2023-01-17T14:49:04.101Z,4.30
2023-01-17T14:51:35.552Z,4.35
2023-01-17T14:54:19.381Z,4.30
2023-01-17T14:56:48.265Z,3.95
2023-01-17T14:59:17.785Z,4.18
2023-01-17T15:02:06.679Z,4.50
2023-01-17T15:04:39.497Z,4.38
2023-01-17T15:09:38.999Z,3.65
2023-01-17T15:12:10.781Z,3.90
2023-01-17T15:14:42.933Z,3.50
2023-01-17T15:17:17.375Z,4.20
2023-01-17T15:19:56.703Z,4.50
2023-01-17T15:22:27.049Z,5.20
2023-01-17T15:25:01.137Z,6.20
2023-01-17T15:27:30.535Z,6.72
2023-01-17T15:30:02.307Z,6.70
2023-01-17T15:35:02.801Z,5.70
2023-01-17T15:37:34.028Z,5.82
2023-01-17T15:40:17.049Z,6.70
2023-01-17T15:42:47.664Z,6.43
2023-01-17T15:45:23.356Z,5.93
2023-01-17T15:47:52.226Z,5.50
2023-01-17T15:50:32.201Z,5.15
2023-01-17T15:53:10.356Z,4.85
2023-01-17T15:55:41.234Z,4.85
2023-01-17T15:58:25.769Z,4.78
2023-01-17T16:00:54.688Z,4.88
2023-01-17T16:03:25.581Z,5.10
2023-01-17T16:05:57.974Z,5.73
2023-01-17T16:08:40.291Z,5.20
2023-01-17T16:11:13.593Z,4.47
2023-01-17T16:13:47.332Z,4.25
2023-01-17T16:16:20.117Z,3.70
2023-01-17T16:18:53.262Z,4.40
2023-01-17T16:21:26.945Z,4.70
2023-01-17T16:23:56.998Z,4.47
2023-01-17T16:26:30.531Z,5.13
2023-01-17T16:29:09.017Z,4.80
2023-01-17T16:31:41.303Z,5.00
2023-01-17T16:34:13.028Z,4.78
2023-01-17T16:36:41.587Z,5.03
2023-01-17T16:39:15.726Z,5.30
2023-01-17T16:41:46.812Z,5.38
2023-01-17T16:44:15.284Z,5.70
2023-01-17T16:46:47.144Z,5.30
2023-01-17T16:51:51.894Z,5.10
2023-01-17T16:54:21.337Z,4.60
2023-01-17T16:56:52.044Z,4.97
2023-01-17T16:59:25.158Z,4.22
2023-01-17T17:01:54.289Z,4.63
2023-01-17T17:04:23.229Z,4.00
2023-01-17T17:06:52.996Z,4.00
2023-01-17T17:09:23.159Z,4.50
2023-01-17T17:11:53.498Z,5.20
2023-01-17T17:14:22.162Z,4.45
2023-01-17T17:16:52.735Z,4.55
2023-01-17T17:19:22.028Z,5.30
2023-01-17T17:21:50.505Z,4.80
2023-01-17T17:24:19.105Z,6.40
2023-01-17T17:26:47.307Z,5.20
2023-01-17T17:29:17.834Z,6.05
2023-01-17T17:31:47.844Z,5.80
2023-01-17T17:34:16.619Z,5.50
2023-01-17T17:36:46.635Z,5.75
2023-01-17T17:39:16.227Z,6.15
2023-01-17T17:41:46.786Z,6.05
2023-01-17T17:44:17.649Z,8.10
2023-01-17T17:46:49.397Z,8.00
2023-01-17T17:49:18.501Z,9.10
2023-01-17T17:51:48.110Z,9.93
2023-01-17T17:54:20.085Z,10.88
2023-01-17T17:56:48.831Z,10.00
2023-01-17T17:59:19.590Z,10.35
2023-01-17T18:01:52.416Z,11.07
2023-01-17T18:04:21.623Z,11.13
2023-01-17T18:06:50.286Z,10.10
2023-01-17T18:09:19.682Z,9.98
2023-01-17T18:11:48.126Z,9.75
2023-01-17T18:14:26.063Z,8.63
2023-01-17T18:16:54.416Z,9.32
2023-01-17T18:19:26.038Z,9.13
2023-01-17T18:21:56.275Z,9.48
2023-01-17T18:24:30.107Z,7.88
2023-01-17T18:26:59.179Z,6.65
2023-01-17T18:29:30.597Z,6.50
2023-01-17T18:31:59.744Z,6.70
2023-01-17T18:34:29.671Z,6.97
2023-01-17T18:36:58.713Z,6.88
2023-01-17T18:39:30.990Z,7.45
2023-01-17T18:42:00.695Z,7.80
2023-01-17T18:44:31.364Z,8.60
2023-01-17T18:47:04.990Z,9.13
2023-01-17T18:49:35.633Z,8.25
2023-01-17T18:52:05.376Z,7.75
2023-01-17T18:54:34.095Z,8.43
2023-01-17T18:57:03.044Z,8.50
2023-01-17T18:59:33.271Z,9.55
2023-01-17T19:02:03.715Z,9.48
2023-01-17T19:04:34.023Z,10.07
2023-01-17T19:07:02.312Z,9.63
2023-01-17T19:09:38.480Z,10.27
2023-01-17T19:12:08.695Z,11.52
2023-01-17T19:14:39.489Z,10.10
2023-01-17T19:17:08.333Z,9.77
2023-01-17T19:19:38.161Z,11.00
2023-01-17T19:22:10.304Z,10.07
2023-01-17T19:24:39.608Z,10.50
2023-01-17T19:27:08.691Z,10.48
2023-01-17T19:29:41.085Z,9.38
2023-01-17T19:32:12.931Z,8.90
2023-01-17T19:34:43.601Z,8.45
2023-01-17T19:37:13.134Z,7.50
2023-01-17T19:39:41.891Z,7.38
2023-01-17T19:42:15.714Z,6.88
2023-01-17T19:44:45.889Z,7.70
2023-01-17T19:47:14.360Z,6.65
2023-01-17T19:49:44.549Z,6.88
2023-01-17T19:52:16.105Z,7.65
2023-01-17T19:54:45.215Z,7.70
2023-01-17T19:57:14.171Z,6.93
2023-01-17T19:59:43.334Z,5.93
2023-01-17T20:02:13.517Z,5.72
2023-01-17T20:04:42.358Z,5.93
2023-01-17T20:07:10.698Z,5.70
2023-01-17T20:09:39.109Z,5.90
2023-01-17T20:12:11.084Z,5.65
2023-01-17T20:14:40.646Z,6.07
2023-01-17T20:17:09.487Z,5.40
2023-01-17T20:19:39.876Z,5.20
2023-01-17T20:22:11.249Z,5.18
2023-01-17T20:24:40.183Z,5.50
2023-01-17T20:27:08.488Z,5.10
2023-01-17T20:29:41.685Z,5.50
2023-01-17T20:32:10.371Z,5.30
2023-01-17T20:34:40.463Z,5.05
2023-01-17T20:37:09.300Z,4.78
2023-01-17T20:39:39.461Z,4.35
2023-01-17T20:42:08.272Z,4.57
2023-01-17T20:44:37.575Z,4.65
2023-01-17T20:47:06.947Z,4.20
2023-01-17T20:49:35.716Z,4.50
2023-01-17T20:52:06.275Z,4.80
2023-01-17T20:54:35.628Z,4.72
2023-01-17T20:57:05.202Z,4.60
2023-01-17T20:59:34.608Z,4.60
2023-01-17T21:02:06.847Z,4.43
2023-01-17T21:04:35.744Z,4.60
2023-01-17T21:07:05.722Z,4.40
2023-01-17T21:09:34.254Z,4.10
2023-01-17T21:12:04.776Z,4.50
2023-01-17T21:14:33.457Z,4.78
2023-01-17T21:17:01.982Z,4.97
2023-01-17T21:19:31.241Z,5.07
2023-01-17T21:22:01.448Z,5.32
2023-01-17T21:24:31.523Z,5.20
2023-01-17T21:27:00.809Z,5.28
2023-01-17T21:29:31.578Z,5.05
2023-01-17T21:32:00.502Z,5.82
2023-01-17T21:34:32.138Z,5.80
2023-01-17T21:37:00.558Z,6.50
2023-01-17T21:39:30.873Z,7.80
2023-01-17T21:41:59.632Z,8.05
2023-01-17T21:44:28.874Z,8.35
2023-01-17T21:47:00.003Z,8.52
2023-01-17T21:49:29.008Z,7.18
2023-01-17T21:52:15.359Z,7.18
2023-01-17T21:55:02.456Z,7.63
2023-01-17T21:57:48.625Z,7.10
2023-01-17T22:00:18.838Z,7.47
2023-01-17T22:02:48.710Z,9.30
2023-01-17T22:05:18.755Z,9.48
2023-01-17T22:08:02.413Z,10.30
2023-01-17T22:10:32.767Z,9.75
2023-01-17T22:13:02.422Z,8.95
2023-01-17T22:15:31.257Z,9.02
2023-01-17T22:18:00.026Z,7.50
2023-01-17T22:20:29.105Z,7.07
2023-01-17T22:22:59.091Z,6.47
2023-01-17T22:25:28.106Z,5.82
2023-01-17T22:27:59.579Z,5.80
2023-01-17T22:30:29.490Z,6.65
2023-01-17T22:32:59.268Z,7.30
2023-01-17T22:35:27.854Z,6.63
2023-01-17T22:37:56.714Z,5.95
2023-01-17T22:40:26.132Z,7.75
2023-01-17T22:42:54.365Z,7.70
2023-01-17T22:45:26.022Z,6.95
2023-01-17T22:47:54.337Z,7.30
2023-01-17T22:50:23.410Z,6.95
2023-01-17T22:52:51.978Z,8.15
2023-01-17T22:55:21.739Z,7.43
2023-01-17T22:57:54.802Z,8.20
2023-01-17T23:00:24.689Z,8.93
2023-01-17T23:02:52.852Z,8.68
2023-01-17T23:05:23.200Z,8.77
2023-01-17T23:07:51.996Z,9.38
2023-01-17T23:10:34.857Z,8.80
2023-01-17T23:13:10.920Z,8.73
2023-01-17T23:16:12.602Z,9.35
2023-01-17T23:18:59.850Z,8.77
2023-01-17T23:21:50.491Z,9.68
2023-01-17T23:24:21.694Z,9.35
2023-01-17T23:27:05.155Z,9.90
2023-01-17T23:29:33.394Z,9.80
2023-01-17T23:32:03.325Z,10.30
2023-01-17T23:37:02.264Z,10.57
2023-01-17T23:39:30.584Z,11.15
2023-01-17T23:42:16.579Z,10.55
2023-01-17T23:44:44.972Z,10.82
2023-01-17T23:47:15.669Z,10.98
2023-01-17T23:49:45.425Z,10.50
2023-01-17T23:52:13.544Z,10.15
2023-01-17T23:54:43.029Z,10.45
2023-01-17T23:57:11.749Z,10.18
2023-01-17T23:59:40.197Z,10.90
